createdAt,value
2019-05-29T00:02:12.649Z,24.75
2019-05-29T00:04:43.739Z,25.52
2019-05-29T00:07:16.567Z,25.82
2019-05-29T00:09:47.855Z,25.72
2019-05-29T00:12:21.077Z,25.15
2019-05-29T00:14:50.835Z,26.57
2019-05-29T00:17:20.483Z,25.97
2019-05-29T00:19:50.871Z,26.02
2019-05-29T00:22:23.530Z,25.68
2019-05-29T00:24:53.754Z,25.52
2019-05-29T00:27:23.465Z,25.57
2019-05-29T00:29:53.090Z,23.92
2019-05-29T00:32:22.630Z,23.80
2019-05-29T00:34:52.247Z,25.15
2019-05-29T00:37:23.376Z,22.58
2019-05-29T00:39:54.868Z,21.70
2019-05-29T00:42:24.349Z,24.12
2019-05-29T00:44:53.933Z,24.35
2019-05-29T00:47:23.421Z,24.55
2019-05-29T00:49:53.014Z,26.95
2019-05-29T00:52:22.548Z,25.48
2019-05-29T00:54:52.042Z,27.40
2019-05-29T00:57:21.448Z,23.38
2019-05-29T00:59:51.033Z,22.27
2019-05-29T01:02:20.531Z,21.95
2019-05-29T01:04:50.035Z,22.15
2019-05-29T01:07:20.506Z,21.95
2019-05-29T01:09:50.075Z,22.00
2019-05-29T01:12:19.631Z,22.05
2019-05-29T01:14:50.464Z,22.52
2019-05-29T01:17:20.306Z,22.32
2019-05-29T01:19:51.402Z,23.80
2019-05-29T01:22:20.854Z,21.33
2019-05-29T01:24:50.445Z,22.15
2019-05-29T01:27:20.889Z,19.80
2019-05-29T01:29:50.363Z,20.40
2019-05-29T01:32:19.797Z,20.17
2019-05-29T01:34:49.283Z,20.08
2019-05-29T01:37:20.387Z,19.20
2019-05-29T01:39:49.822Z,19.55
2019-05-29T01:42:19.522Z,20.48
2019-05-29T01:45:03.815Z,19.62
2019-05-29T01:47:21.504Z,21.62
2019-05-29T01:50:12.117Z,20.62
2019-05-29T01:52:49.329Z,20.15
2019-05-29T01:55:24.998Z,19.65
2019-05-29T01:57:57.150Z,19.77
2019-05-29T02:00:28.496Z,17.37
2019-05-29T02:02:58.135Z,19.37
2019-05-29T02:05:31.199Z,18.20
2019-05-29T02:08:01.344Z,19.32
2019-05-29T02:10:30.971Z,19.42
2019-05-29T02:13:00.386Z,15.20
2019-05-29T02:15:33.877Z,14.45
2019-05-29T02:18:02.254Z,11.85
2019-05-29T02:20:31.801Z,13.28
2019-05-29T02:23:01.325Z,13.48
2019-05-29T02:25:30.883Z,13.98
2019-05-29T02:28:00.375Z,14.05
2019-05-29T02:30:30.811Z,13.75
2019-05-29T02:33:01.543Z,14.15
2019-05-29T02:35:30.996Z,14.40
2019-05-29T02:38:00.539Z,15.53
2019-05-29T02:40:31.732Z,15.70
2019-05-29T02:43:01.790Z,15.93
2019-05-29T02:45:50.805Z,16.20
2019-05-29T02:48:02.597Z,16.07
2019-05-29T02:50:32.342Z,17.05
2019-05-29T02:53:01.811Z,15.80
2019-05-29T02:55:31.469Z,15.95
2019-05-29T02:58:00.969Z,15.63
2019-05-29T03:00:39.919Z,15.40
2019-05-29T03:03:09.508Z,13.75
2019-05-29T03:05:39.208Z,14.18
2019-05-29T03:08:08.773Z,13.10
2019-05-29T03:10:38.332Z,12.80
2019-05-29T03:13:07.821Z,13.88
2019-05-29T03:15:37.451Z,13.18
2019-05-29T03:18:07.043Z,13.70
2019-05-29T03:20:36.592Z,14.23
2019-05-29T03:23:06.152Z,14.98
2019-05-29T03:25:37.033Z,14.28
2019-05-29T03:28:06.727Z,13.45
2019-05-29T03:30:44.268Z,6.97
2019-05-29T03:33:07.616Z,6.58
2019-05-29T03:35:43.291Z,6.55
2019-05-29T03:38:08.375Z,8.33
2019-05-29T03:40:38.691Z,7.40
2019-05-29T03:43:08.254Z,7.55
2019-05-29T03:45:38.101Z,7.67
2019-05-29T03:48:07.594Z,8.65
2019-05-29T03:50:38.330Z,8.78
2019-05-29T03:53:08.346Z,7.75
2019-05-29T03:55:38.091Z,5.90
2019-05-29T03:58:10.599Z,6.03
2019-05-29T04:00:46.124Z,4.35
2019-05-29T04:03:11.540Z,4.80
2019-05-29T04:05:44.040Z,5.50
2019-05-29T04:08:13.510Z,3.92
2019-05-29T04:10:43.002Z,3.55
2019-05-29T04:13:13.157Z,4.60
2019-05-29T04:15:44.788Z,5.03
2019-05-29T04:18:19.553Z,4.80
2019-05-29T04:20:48.744Z,4.10
2019-05-29T04:23:19.790Z,5.50
2019-05-29T04:25:51.201Z,5.65
2019-05-29T04:28:20.761Z,5.70
2019-05-29T04:30:50.345Z,6.78
2019-05-29T04:33:24.617Z,5.67
2019-05-29T04:35:56.853Z,5.47
2019-05-29T04:38:26.406Z,5.78
2019-05-29T04:40:55.939Z,5.87
2019-05-29T04:43:25.458Z,4.75
2019-05-29T04:45:54.983Z,4.42
2019-05-29T04:48:24.636Z,5.03
2019-05-29T04:50:54.353Z,4.62
2019-05-29T04:56:30.726Z,4.33
2019-05-29T04:59:00.320Z,3.65
2019-05-29T05:01:30.802Z,3.77
2019-05-29T05:04:00.290Z,3.50
2019-05-29T05:06:29.662Z,2.58
2019-05-29T05:08:59.077Z,3.08
2019-05-29T05:11:29.378Z,2.37
2019-05-29T05:14:01.743Z,2.42
2019-05-29T05:16:31.689Z,2.33
2019-05-29T05:19:01.172Z,2.60
2019-05-29T05:21:31.870Z,2.55
2019-05-29T05:24:01.458Z,2.65
2019-05-29T05:26:32.157Z,2.60
2019-05-29T05:29:01.496Z,2.45
2019-05-29T05:31:30.929Z,2.20
2019-05-29T05:34:00.268Z,2.70
2019-05-29T05:36:30.633Z,2.42
2019-05-29T05:39:01.739Z,2.75
2019-05-29T05:41:32.771Z,2.27
2019-05-29T05:44:02.249Z,2.08
2019-05-29T05:46:31.582Z,2.55
2019-05-29T05:49:00.928Z,2.20
2019-05-29T05:51:31.217Z,2.33
2019-05-29T05:54:00.619Z,2.00
2019-05-29T05:56:29.983Z,2.47
2019-05-29T05:58:59.439Z,2.77
2019-05-29T06:01:28.835Z,2.80
2019-05-29T06:03:58.193Z,2.12
2019-05-29T06:06:27.627Z,2.45
2019-05-29T06:08:56.964Z,2.20
2019-05-29T06:11:26.331Z,1.85
2019-05-29T06:13:55.805Z,1.90
2019-05-29T06:16:25.234Z,1.87
2019-05-29T06:18:54.584Z,1.87
2019-05-29T06:21:23.986Z,1.70
2019-05-29T06:23:53.318Z,1.67
2019-05-29T06:26:22.741Z,1.90
2019-05-29T06:28:52.102Z,2.02
2019-05-29T06:31:21.537Z,3.33
2019-05-29T06:33:50.963Z,3.00
2019-05-29T06:36:20.398Z,3.00
2019-05-29T06:38:49.732Z,3.10
2019-05-29T06:41:19.096Z,3.58
2019-05-29T06:43:48.600Z,3.98
2019-05-29T06:46:18.049Z,3.42
2019-05-29T06:48:59.045Z,3.77
2019-05-29T06:51:18.545Z,3.62
2019-05-29T06:53:48.299Z,3.60
2019-05-29T06:56:18.176Z,3.60
2019-05-29T06:58:48.514Z,3.00
2019-05-29T07:01:18.300Z,2.40
2019-05-29T07:03:48.210Z,2.00
2019-05-29T07:06:17.828Z,2.27
2019-05-29T07:08:49.636Z,1.67
2019-05-29T07:11:18.243Z,2.20
2019-05-29T07:13:50.327Z,1.75
2019-05-29T07:16:18.653Z,1.70
2019-05-29T07:19:23.331Z,1.55
2019-05-29T07:21:19.149Z,1.20
2019-05-29T07:23:48.927Z,1.20
2019-05-29T07:26:18.405Z,1.25
2019-05-29T07:29:07.430Z,1.30
2019-05-29T07:31:19.896Z,1.00
2019-05-29T07:33:49.230Z,1.20
2019-05-29T07:36:18.608Z,0.50
2019-05-29T07:39:01.778Z,0.80
2019-05-29T07:41:19.950Z,0.82
2019-05-29T07:43:49.328Z,1.10
2019-05-29T07:46:18.835Z,0.90
2019-05-29T07:48:50.224Z,1.02
2019-05-29T07:51:19.442Z,1.00
2019-05-29T07:53:48.984Z,0.90
2019-05-29T07:56:23.015Z,1.17
2019-05-29T07:59:01.893Z,0.90
2019-05-29T08:01:22.810Z,0.80
2019-05-29T08:03:52.320Z,0.88
2019-05-29T08:06:21.933Z,0.40
2019-05-29T08:08:51.394Z,0.47
2019-05-29T08:11:20.800Z,0.40
2019-05-29T08:13:50.172Z,0.40
2019-05-29T08:16:19.603Z,0.40
2019-05-29T08:18:52.667Z,0.40
2019-05-29T08:21:20.411Z,0.30
2019-05-29T08:23:50.796Z,0.30
2019-05-29T08:26:20.475Z,0.40
2019-05-29T08:28:51.185Z,0.30
2019-05-29T08:31:20.764Z,0.37
2019-05-29T08:33:51.297Z,0.50
2019-05-29T08:36:21.970Z,0.30
2019-05-29T08:38:52.399Z,0.35
2019-05-29T08:41:21.895Z,0.30
2019-05-29T08:43:52.599Z,0.40
2019-05-29T08:46:22.254Z,0.30
2019-05-29T08:48:52.252Z,0.20
2019-05-29T08:51:21.887Z,0.30
2019-05-29T08:53:52.481Z,0.23
2019-05-29T08:56:23.983Z,0.20
2019-05-29T08:58:53.347Z,0.30
2019-05-29T09:01:23.843Z,0.30
2019-05-29T09:03:53.430Z,0.30
2019-05-29T09:06:23.992Z,0.35
2019-05-29T09:08:54.983Z,0.30
2019-05-29T09:11:24.404Z,0.40
2019-05-29T09:13:53.843Z,0.20
2019-05-29T09:16:23.298Z,0.50
2019-05-29T09:18:52.705Z,0.23
2019-05-29T09:21:22.909Z,0.20
2019-05-29T09:23:53.161Z,0.20
2019-05-29T09:26:25.534Z,0.30
2019-05-29T09:28:53.595Z,0.25
2019-05-29T09:31:24.009Z,0.40
2019-05-29T09:33:53.386Z,0.30
2019-05-29T09:36:22.880Z,0.40
2019-05-29T09:38:52.378Z,0.30
2019-05-29T09:41:22.209Z,0.30
2019-05-29T09:43:58.899Z,0.50
2019-05-29T09:46:23.917Z,0.82
2019-05-29T09:48:53.296Z,0.68
2019-05-29T09:51:22.704Z,0.50
2019-05-29T09:53:52.533Z,0.70
2019-05-29T09:56:23.359Z,0.70
2019-05-29T09:58:53.828Z,0.65
2019-05-29T10:01:25.077Z,0.60
2019-05-29T10:03:56.697Z,0.50
2019-05-29T10:06:27.013Z,0.50
2019-05-29T10:08:57.884Z,0.50
2019-05-29T10:11:27.460Z,0.93
2019-05-29T10:13:58.549Z,1.52
2019-05-29T10:16:28.287Z,0.80
2019-05-29T10:18:59.808Z,0.65
2019-05-29T10:21:39.011Z,0.70
2019-05-29T10:24:01.232Z,0.72
2019-05-29T10:26:30.872Z,0.93
2019-05-29T10:29:07.388Z,0.80
2019-05-29T10:31:31.409Z,0.82
2019-05-29T10:34:00.801Z,0.78
2019-05-29T10:36:30.217Z,0.70
2019-05-29T10:38:59.584Z,0.80
2019-05-29T10:41:30.543Z,0.70
2019-05-29T10:43:59.928Z,0.60
2019-05-29T10:46:29.351Z,0.70
2019-05-29T10:48:58.722Z,0.80
2019-05-29T10:51:28.181Z,0.60
2019-05-29T10:53:59.127Z,0.80
2019-05-29T10:56:28.824Z,0.80
2019-05-29T10:59:00.145Z,0.70
2019-05-29T11:01:29.217Z,0.60
2019-05-29T11:03:58.590Z,0.70
2019-05-29T11:06:28.004Z,0.70
2019-05-29T11:08:57.423Z,0.80
2019-05-29T11:11:26.843Z,0.98
2019-05-29T11:13:57.146Z,1.47
2019-05-29T11:16:26.719Z,1.02
2019-05-29T11:18:57.568Z,0.78
2019-05-29T11:21:27.141Z,1.40
2019-05-29T11:23:56.470Z,0.80
2019-05-29T11:26:25.813Z,0.90
2019-05-29T11:28:56.487Z,1.00
2019-05-29T11:31:26.072Z,0.90
2019-05-29T11:33:55.519Z,0.90
2019-05-29T11:36:24.997Z,1.32
2019-05-29T11:38:54.650Z,1.40
2019-05-29T11:41:26.670Z,1.20
2019-05-29T11:43:55.152Z,0.78
2019-05-29T11:46:24.614Z,0.80
2019-05-29T11:48:55.138Z,0.75
2019-05-29T11:51:24.819Z,0.75
2019-05-29T11:53:55.412Z,0.70
2019-05-29T11:56:25.018Z,1.02
2019-05-29T11:58:54.821Z,0.90
2019-05-29T12:01:24.459Z,0.75
2019-05-29T12:04:13.559Z,0.85
2019-05-29T12:06:24.903Z,0.70
2019-05-29T12:08:55.627Z,0.80
2019-05-29T12:11:25.183Z,0.80
2019-05-29T12:13:55.944Z,0.93
2019-05-29T12:16:25.624Z,0.80
2019-05-29T12:18:55.661Z,0.65
2019-05-29T12:21:25.071Z,0.95
2019-05-29T12:23:54.413Z,0.60
2019-05-29T12:32:30.943Z,0.50
2019-05-29T12:35:01.131Z,0.60
2019-05-29T12:37:30.705Z,0.60
2019-05-29T12:40:01.434Z,0.70
2019-05-29T12:42:32.262Z,0.93
2019-05-29T12:45:02.062Z,0.95
2019-05-29T12:47:31.662Z,0.93
2019-05-29T12:50:02.677Z,0.60
2019-05-29T12:52:32.173Z,0.40
2019-05-29T12:55:02.449Z,0.60
2019-05-29T12:57:32.136Z,0.50
2019-05-29T13:00:03.884Z,0.40
2019-05-29T13:02:32.734Z,0.57
2019-05-29T13:05:09.352Z,0.40
2019-05-29T13:07:33.308Z,0.50
2019-05-29T13:10:02.857Z,0.55
2019-05-29T13:12:32.240Z,0.35
2019-05-29T13:15:03.464Z,0.40
2019-05-29T13:17:32.792Z,0.30
2019-05-29T13:20:17.031Z,0.20
2019-05-29T13:22:33.300Z,0.13
2019-05-29T13:25:03.462Z,0.25
2019-05-29T13:27:32.919Z,0.10
2019-05-29T13:30:04.978Z,0.20
2019-05-29T13:32:33.870Z,0.20
2019-05-29T13:35:04.224Z,0.20
2019-05-29T13:37:33.758Z,0.20
2019-05-29T13:40:07.100Z,0.17
2019-05-29T13:42:36.268Z,0.20
2019-05-29T13:45:16.804Z,0.20
2019-05-29T13:47:40.572Z,0.25
2019-05-29T13:50:12.572Z,0.10
2019-05-29T13:52:42.054Z,0.25
2019-05-29T13:55:13.661Z,0.15
2019-05-29T13:57:43.081Z,0.20
2019-05-29T14:00:32.240Z,0.30
2019-05-29T14:02:46.513Z,0.40
2019-05-29T14:05:16.914Z,0.30
2019-05-29T14:07:46.370Z,0.30
2019-05-29T14:10:16.136Z,0.35
2019-05-29T14:12:45.572Z,0.40
2019-05-29T14:15:15.229Z,0.20
2019-05-29T14:17:44.735Z,0.23
2019-05-29T14:20:15.214Z,0.30
2019-05-29T14:22:44.678Z,0.20
2019-05-29T14:25:14.301Z,0.40
2019-05-29T14:27:43.714Z,0.20
2019-05-29T14:30:14.473Z,0.20
2019-05-29T14:32:43.907Z,0.35
2019-05-29T14:35:13.623Z,0.20
2019-05-29T14:37:43.019Z,0.20
2019-05-29T14:40:15.032Z,0.30
2019-05-29T14:42:44.744Z,0.25
2019-05-29T14:45:15.866Z,0.40
2019-05-29T14:47:45.312Z,0.30
2019-05-29T14:50:16.549Z,0.20
2019-05-29T14:52:45.970Z,0.20
2019-05-29T14:55:18.233Z,0.30
2019-05-29T14:57:47.215Z,0.40
2019-05-29T15:00:24.770Z,0.40
2019-05-29T15:02:48.258Z,0.30
2019-05-29T15:05:18.070Z,0.30
2019-05-29T15:07:47.424Z,0.28
2019-05-29T15:10:26.823Z,0.20
2019-05-29T15:12:48.064Z,0.35
2019-05-29T15:15:17.936Z,0.50
2019-05-29T15:17:47.304Z,0.30
2019-05-29T15:20:17.270Z,0.30
2019-05-29T15:22:46.718Z,0.23
2019-05-29T15:25:23.523Z,0.20
2019-05-29T15:27:47.584Z,0.20
2019-05-29T15:30:22.794Z,0.30
2019-05-29T15:32:48.988Z,0.20
2019-05-29T15:35:20.109Z,0.20
2019-05-29T15:37:49.742Z,0.28
2019-05-29T15:40:20.326Z,0.20
2019-05-29T15:42:49.665Z,0.30
2019-05-29T15:45:20.471Z,0.40
2019-05-29T15:47:49.861Z,0.30
2019-05-29T15:50:19.463Z,0.30
2019-05-29T15:52:50.107Z,0.47
2019-05-29T15:55:29.712Z,0.30
2019-05-29T15:57:52.112Z,0.40
2019-05-29T16:00:22.005Z,0.40
2019-05-29T16:02:51.774Z,0.50
2019-05-29T16:05:21.739Z,0.40
2019-05-29T16:07:51.234Z,0.33
2019-05-29T16:10:21.201Z,0.40
2019-05-29T16:12:50.623Z,0.30
2019-05-29T16:15:21.310Z,0.42
2019-05-29T16:17:50.732Z,0.40
2019-05-29T16:20:20.372Z,0.40
2019-05-29T16:22:49.794Z,0.37
2019-05-29T16:25:19.324Z,0.47
2019-05-29T16:27:49.805Z,0.50
2019-05-29T16:30:20.085Z,0.50
2019-05-29T16:32:50.314Z,0.50
2019-05-29T16:35:19.962Z,0.50
2019-05-29T16:37:49.414Z,0.40
2019-05-29T16:40:21.854Z,0.50
2019-05-29T16:42:51.340Z,0.40
2019-05-29T16:45:22.415Z,1.12
2019-05-29T16:47:51.866Z,1.00
2019-05-29T16:50:21.369Z,0.90
2019-05-29T16:52:51.204Z,0.40
2019-05-29T16:55:21.156Z,0.65
2019-05-29T16:57:50.668Z,0.80
2019-05-29T17:00:21.988Z,0.70
2019-05-29T17:02:52.925Z,0.65
2019-05-29T17:05:24.143Z,0.88
2019-05-29T17:07:55.259Z,0.70
2019-05-29T17:10:30.188Z,0.60
2019-05-29T17:13:01.107Z,0.68
2019-05-29T17:15:34.178Z,0.60
2019-05-29T17:18:10.453Z,0.60
2019-05-29T17:20:48.900Z,3.47
2019-05-29T17:23:18.866Z,0.90
2019-05-29T17:25:48.338Z,0.50
2019-05-29T17:28:21.420Z,0.85
2019-05-29T17:30:48.778Z,0.50
2019-05-29T17:33:19.045Z,0.50
2019-05-29T17:35:49.132Z,0.60
2019-05-29T17:38:19.012Z,0.60
2019-05-29T17:40:48.467Z,0.50
2019-05-29T17:43:24.570Z,0.50
2019-05-29T17:45:51.756Z,0.68
2019-05-29T17:48:21.720Z,0.62
2019-05-29T17:50:51.422Z,0.70
2019-05-29T17:53:26.175Z,0.70
2019-05-29T17:55:58.793Z,0.75
2019-05-29T17:58:28.282Z,0.70
2019-05-29T18:00:59.859Z,0.98
2019-05-29T18:03:29.557Z,0.62
2019-05-29T18:05:58.954Z,1.00
2019-05-29T18:08:29.380Z,0.90
2019-05-29T18:11:00.655Z,0.80
2019-05-29T18:13:30.143Z,0.85
2019-05-29T18:15:59.620Z,1.00
2019-05-29T18:18:28.981Z,1.20
2019-05-29T18:20:58.425Z,1.12
2019-05-29T18:23:28.209Z,1.17
2019-05-29T18:25:57.877Z,1.30
2019-05-29T18:28:28.269Z,1.22
2019-05-29T18:30:57.741Z,1.10
2019-05-29T18:33:27.344Z,1.30
2019-05-29T18:35:56.771Z,1.45
2019-05-29T18:38:26.533Z,1.10
2019-05-29T18:40:56.056Z,1.25
2019-05-29T18:43:26.578Z,1.10
2019-05-29T18:45:56.070Z,1.00
2019-05-29T18:48:25.502Z,1.35
2019-05-29T18:50:54.951Z,1.40
2019-05-29T18:53:24.764Z,1.45
2019-05-29T18:55:54.301Z,1.20
2019-05-29T18:58:26.016Z,1.12
2019-05-29T19:00:55.572Z,1.40
2019-05-29T19:03:25.370Z,1.20
2019-05-29T19:05:54.959Z,1.25
2019-05-29T19:08:25.661Z,1.32
2019-05-29T19:10:56.615Z,1.57
2019-05-29T19:13:25.952Z,1.40
2019-05-29T19:15:55.450Z,1.52
2019-05-29T19:18:26.062Z,1.70
2019-05-29T19:20:55.454Z,1.70
2019-05-29T19:23:26.313Z,1.67
2019-05-29T19:25:57.691Z,1.50
2019-05-29T19:28:27.132Z,1.15
2019-05-29T19:31:00.908Z,1.55
2019-05-29T19:33:33.564Z,1.70
2019-05-29T19:36:07.973Z,1.60
2019-05-29T19:38:38.919Z,1.62
2019-05-29T19:41:08.679Z,1.90
2019-05-29T19:43:46.148Z,1.50
2019-05-29T19:46:17.215Z,1.90
2019-05-29T19:48:51.363Z,1.60
2019-05-29T19:51:18.138Z,1.50
2019-05-29T19:53:48.859Z,1.52
2019-05-29T19:56:18.494Z,2.20
2019-05-29T19:58:49.096Z,1.85
2019-05-29T20:01:30.541Z,1.57
2019-05-29T20:03:51.314Z,1.77
2019-05-29T20:06:26.878Z,1.82
2019-05-29T20:08:58.590Z,1.72
2019-05-29T20:11:29.426Z,1.80
2019-05-29T20:13:59.195Z,1.85
2019-05-29T20:16:32.141Z,2.30
2019-05-29T20:19:02.050Z,2.12
2019-05-29T20:21:34.773Z,2.27
2019-05-29T20:24:12.850Z,2.20
2019-05-29T20:26:52.637Z,2.50
2019-05-29T20:29:23.708Z,2.25
2019-05-29T20:31:53.315Z,2.60
2019-05-29T20:34:26.074Z,2.80
2019-05-29T20:36:57.124Z,3.30
2019-05-29T20:39:30.110Z,3.27
2019-05-29T20:41:58.127Z,3.62
2019-05-29T20:44:27.783Z,3.20
2019-05-29T20:46:57.434Z,2.62
2019-05-29T20:49:26.983Z,2.90
2019-05-29T20:51:56.645Z,2.90
2019-05-29T20:54:26.147Z,3.25
2019-05-29T20:56:55.701Z,3.52
2019-05-29T20:59:26.265Z,3.77
2019-05-29T21:01:56.959Z,3.25
2019-05-29T21:04:26.376Z,3.15
2019-05-29T21:06:56.046Z,3.10
2019-05-29T21:09:25.502Z,3.58
2019-05-29T21:11:54.962Z,2.90
2019-05-29T21:14:24.401Z,2.90
2019-05-29T21:16:54.974Z,3.50
2019-05-29T21:19:24.545Z,3.90
2019-05-29T21:21:53.984Z,3.62
2019-05-29T21:24:23.508Z,3.80
2019-05-29T21:26:53.003Z,3.65
2019-05-29T21:29:22.483Z,3.83
2019-05-29T21:31:51.990Z,3.67
2019-05-29T21:34:22.233Z,3.95
2019-05-29T21:36:51.822Z,3.67
2019-05-29T21:39:21.367Z,4.00
2019-05-29T21:41:50.865Z,3.60
2019-05-29T21:44:20.405Z,4.42
2019-05-29T21:46:49.922Z,4.28
2019-05-29T21:49:19.472Z,4.25
2019-05-29T21:51:56.947Z,4.28
2019-05-29T21:54:26.459Z,4.65
2019-05-29T21:56:56.008Z,4.42
2019-05-29T21:59:25.498Z,4.85
2019-05-29T22:01:55.093Z,5.28
2019-05-29T22:04:24.601Z,4.78
2019-05-29T22:06:54.180Z,5.33
2019-05-29T22:09:26.231Z,5.15
2019-05-29T22:11:56.358Z,5.47
2019-05-29T22:14:26.020Z,6.00
2019-05-29T22:16:57.036Z,5.53
2019-05-29T22:19:26.655Z,6.85
2019-05-29T22:21:57.101Z,6.70
2019-05-29T22:24:26.693Z,7.03
2019-05-29T22:26:57.272Z,6.92
2019-05-29T22:29:26.934Z,7.50
2019-05-29T22:31:57.521Z,8.48
2019-05-29T22:34:27.220Z,8.58
2019-05-29T22:36:57.496Z,8.65
2019-05-29T22:39:27.571Z,8.90
2019-05-29T22:41:57.621Z,9.28
2019-05-29T22:44:27.141Z,9.95
2019-05-29T22:46:57.821Z,9.70
2019-05-29T22:49:27.441Z,9.83
2019-05-29T22:51:57.807Z,10.40
2019-05-29T22:54:27.472Z,9.33
2019-05-29T22:56:57.972Z,10.28
2019-05-29T22:59:32.295Z,10.50
2019-05-29T23:02:00.530Z,11.12
2019-05-29T23:04:30.082Z,12.15
2019-05-29T23:07:00.451Z,12.10
2019-05-29T23:09:29.989Z,12.13
2019-05-29T23:12:00.644Z,12.75
2019-05-29T23:14:30.271Z,13.10
2019-05-29T23:17:00.639Z,12.78
2019-05-29T23:19:30.117Z,13.55
2019-05-29T23:22:01.097Z,13.28
2019-05-29T23:24:30.621Z,13.90
2019-05-29T23:27:00.855Z,13.72
2019-05-29T23:29:30.359Z,13.60
2019-05-29T23:32:00.959Z,13.90
2019-05-29T23:34:30.673Z,14.30
2019-05-29T23:37:01.261Z,14.70
2019-05-29T23:39:30.971Z,15.18
2019-05-29T23:42:01.485Z,15.15
2019-05-29T23:44:31.239Z,15.40
2019-05-29T23:47:01.771Z,14.60
2019-05-29T23:49:31.377Z,15.03
2019-05-29T23:52:02.894Z,14.68
2019-05-29T23:54:33.306Z,14.03
2019-05-29T23:57:04.058Z,13.65
2019-05-29T23:59:33.827Z,14.50
